Time;durP1;ratioP1;P1;durP2;ratioP2;P2;SDS_P1;SDS_P2;PMS_P1;PMS_P2;Temp;Humidity;BMP_temperature;BMP_pressure;BME280_temperature;BME280_humidity;BME280_pressure;Samples;Min_cycle;Max_cycle;Signal;HPM_P1;HPM_P2
2021/06/11 00:01:27;;;;;;;3.97;3.58;;;22.10;68.60;;;;;;6279629;22;20156;-72
2021/06/11 00:03:53;;;;;;;4.32;3.92;;;22.10;68.60;;;;;;6279262;22;20051;-72
2021/06/11 00:06:19;;;;;;;4.97;3.80;;;22.10;68.50;;;;;;6282198;22;20073;-73
2021/06/11 00:08:44;;;;;;;4.03;3.63;;;22.00;68.50;;;;;;6289742;22;20020;-73
2021/06/11 00:11:11;;;;;;;4.07;3.67;;;22.00;68.50;;;;;;6279355;22;20026;-72
2021/06/11 00:13:36;;;;;;;4.13;3.72;;;22.10;68.50;;;;;;6289526;22;20412;-73
2021/06/11 00:16:02;;;;;;;4.43;3.90;;;22.10;68.50;;;;;;6289258;22;20012;-73
2021/06/11 00:18:29;;;;;;;5.18;3.80;;;22.10;68.50;;;;;;6279846;22;20016;-73
2021/06/11 00:20:56;;;;;;;5.30;3.80;;;22.10;68.60;;;;;;6262284;22;20091;-73
2021/06/11 00:23:23;;;;;;;4.07;3.67;;;22.10;68.60;;;;;;6288957;22;20011;-73
2021/06/11 00:25:50;;;;;;;3.75;3.42;;;22.10;68.60;;;;;;6289523;22;20016;-73
2021/06/11 00:28:15;;;;;;;4.32;3.90;;;22.00;68.60;;;;;;6278925;22;20277;-72
2021/06/11 00:30:42;;;;;;;4.72;4.00;;;22.00;68.60;;;;;;6278394;22;20020;-72
2021/06/11 00:33:09;;;;;;;3.95;3.55;;;22.00;68.60;;;;;;6278757;22;20055;-73
2021/06/11 00:35:35;;;;;;;4.07;3.47;;;22.00;68.60;;;;;;6288634;22;20019;-73
2021/06/11 00:38:03;;;;;;;3.92;3.60;;;22.00;68.50;;;;;;6289213;22;20028;-72
2021/06/11 00:40:29;;;;;;;4.43;3.95;;;22.00;68.50;;;;;;6278573;22;20016;-73
2021/06/11 00:42:55;;;;;;;3.67;3.30;;;22.00;68.50;;;;;;6278642;22;20026;-72
2021/06/11 00:45:21;;;;;;;4.43;4.03;;;22.00;68.50;;;;;;6278476;22;20016;-73
2021/06/11 00:47:47;;;;;;;4.82;3.92;;;22.00;68.50;;;;;;6278767;22;20016;-73
2021/06/11 00:50:16;;;;;;;4.85;4.30;;;22.00;68.50;;;;;;6289516;22;20011;-73
2021/06/11 00:52:42;;;;;;;5.25;4.32;;;22.00;68.50;;;;;;6279177;22;20016;-73
2021/06/11 00:55:09;;;;;;;4.47;4.07;;;21.90;68.50;;;;;;6262192;22;20077;-73
2021/06/11 00:57:35;;;;;;;4.68;4.18;;;22.00;68.50;;;;;;6278487;22;20077;-73
2021/06/11 01:00:05;;;;;;;4.80;4.07;;;22.00;68.60;;;;;;6278410;22;20031;-73
2021/06/11 01:02:31;;;;;;;4.20;3.80;;;22.00;68.60;;;;;;6278660;22;20023;-73
2021/06/11 01:04:57;;;;;;;4.75;4.28;;;21.90;68.50;;;;;;6289542;22;20012;-73
2021/06/11 01:07:24;;;;;;;4.15;3.75;;;21.90;68.50;;;;;;6291029;22;20047;-73
2021/06/11 01:09:53;;;;;;;4.55;4.15;;;21.90;68.50;;;;;;6290516;22;20030;-72
2021/06/11 01:12:19;;;;;;;5.00;4.50;;;21.90;68.50;;;;;;6280739;22;20023;-73
2021/06/11 01:14:45;;;;;;;4.43;4.00;;;21.90;68.60;;;;;;6281544;22;20027;-73
2021/06/11 01:17:11;;;;;;;4.63;4.05;;;21.90;68.50;;;;;;6291061;22;20016;-73
2021/06/11 01:19:46;;;;;;;4.82;4.20;;;21.90;68.60;;;;;;6290554;22;20020;-73
2021/06/11 01:22:35;;;;;;;4.25;3.78;;;21.90;68.50;;;;;;6280620;22;20011;-72
2021/06/11 01:25:12;;;;;;;4.68;4.00;;;21.90;68.50;;;;;;6280429;22;20333;-72
2021/06/11 01:27:44;;;;;;;5.05;4.35;;;21.90;68.50;;;;;;6281311;22;20130;-73
2021/06/11 01:30:21;;;;;;;5.30;4.30;;;21.90;68.50;;;;;;6280081;22;20081;-72
2021/06/11 01:32:48;;;;;;;4.40;4.00;;;21.90;68.60;;;;;;6280316;22;20026;-73
2021/06/11 01:35:31;;;;;;;5.60;4.82;;;21.90;68.60;;;;;;6280655;22;20020;-73
2021/06/11 01:38:01;;;;;;;5.43;4.68;;;21.90;68.50;;;;;;6291507;22;20023;-73
2021/06/11 01:40:28;;;;;;;5.80;4.47;;;21.90;68.60;;;;;;6281093;22;20423;-73
2021/06/11 01:42:56;;;;;;;4.85;4.30;;;21.90;68.50;;;;;;6264117;22;20412;-73
2021/06/11 01:45:23;;;;;;;4.60;4.10;;;21.90;68.60;;;;;;6290450;22;20016;-73
2021/06/11 01:47:51;;;;;;;4.65;4.25;;;21.90;68.60;;;;;;6290341;22;20015;-73
2021/06/11 01:50:34;;;;;;;4.40;3.97;;;21.90;68.50;;;;;;6280147;22;20020;-73
2021/06/11 01:53:02;;;;;;;4.75;4.22;;;21.90;68.50;;;;;;6290993;22;20012;-72
2021/06/11 01:55:29;;;;;;;5.25;4.45;;;21.90;68.60;;;;;;6280664;22;20038;-72
2021/06/11 01:57:58;;;;;;;5.57;4.65;;;21.90;68.60;;;;;;6280162;22;20024;-73
2021/06/11 02:00:25;;;;;;;4.55;4.07;;;21.80;68.60;;;;;;6290555;22;20023;-72
2021/06/11 02:02:52;;;;;;;5.03;4.50;;;21.80;68.60;;;;;;6280293;22;20015;-73
2021/06/11 02:05:19;;;;;;;5.30;4.63;;;21.80;68.60;;;;;;6288564;22;20012;-73
2021/06/11 02:07:49;;;;;;;4.68;4.18;;;21.80;68.60;;;;;;6289869;22;20022;-73
2021/06/11 02:10:19;;;;;;;4.70;4.22;;;21.80;68.60;;;;;;6291221;22;20090;-72
2021/06/11 02:12:45;;;;;;;5.47;4.50;;;21.80;68.60;;;;;;6253477;22;20024;-72
2021/06/11 02:15:13;;;;;;;4.78;4.20;;;21.80;68.70;;;;;;6280474;22;20050;-73
2021/06/11 02:17:45;;;;;;;4.63;4.05;;;21.80;68.70;;;;;;6289641;22;20424;-72
2021/06/11 02:20:14;;;;;;;4.45;4.00;;;21.80;68.70;;;;;;6290821;22;20035;-72
2021/06/11 02:22:42;;;;;;;5.03;4.47;;;21.80;68.70;;;;;;6290555;22;20008;-72
2021/06/11 02:25:10;;;;;;;5.18;4.53;;;21.80;68.70;;;;;;6290000;22;20030;-72
2021/06/11 02:27:37;;;;;;;4.90;4.40;;;21.80;68.70;;;;;;6279685;22;20034;-72
2021/06/11 02:30:07;;;;;;;5.43;4.78;;;21.80;68.70;;;;;;6290102;22;20342;-72
2021/06/11 02:32:35;;;;;;;4.90;4.40;;;21.70;68.60;;;;;;6290350;22;20103;-72
2021/06/11 02:35:07;;;;;;;5.38;4.65;;;21.80;68.70;;;;;;6290587;22;20020;-73
2021/06/11 02:37:34;;;;;;;4.70;4.30;;;21.70;68.60;;;;;;6279875;22;20019;-73
2021/06/11 02:40:01;;;;;;;4.90;4.15;;;21.80;68.70;;;;;;6290215;22;20011;-72
2021/06/11 02:42:29;;;;;;;5.80;4.70;;;21.80;68.70;;;;;;6290409;22;20011;-72
2021/06/11 02:45:00;;;;;;;5.15;4.65;;;21.80;68.70;;;;;;6290114;22;20015;-73
2021/06/11 02:47:43;;;;;;;5.40;4.50;;;21.80;68.70;;;;;;6289522;22;20412;-72
2021/06/11 02:50:17;;;;;;;4.95;4.45;;;21.70;68.60;;;;;;6280180;22;20432;-73
2021/06/11 02:52:47;;;;;;;;;;;21.70;68.60;;;;;;6281228;22;20016;-72
2021/06/11 02:55:16;;;;;;;6.53;4.40;;;21.70;68.60;;;;;;6290189;22;20300;-72
2021/06/11 02:57:53;;;;;;;5.03;4.50;;;21.70;68.70;;;;;;6253824;22;20502;-73
2021/06/11 03:00:20;;;;;;;5.75;4.72;;;21.70;68.70;;;;;;6289953;22;20428;-73
2021/06/11 03:02:58;;;;;;;6.57;5.88;;;21.70;68.70;;;;;;6279637;22;20042;-73
2021/06/11 03:05:24;;;;;;;5.28;4.57;;;21.70;68.70;;;;;;6279254;22;20081;-72
2021/06/11 03:07:54;;;;;;;5.55;4.95;;;21.70;68.70;;;;;;6279647;22;20035;-73
2021/06/11 03:10:29;;;;;;;6.50;4.82;;;21.70;68.70;;;;;;6279603;22;20015;-72
2021/06/11 03:13:00;;;;;;;5.32;4.75;;;21.70;68.70;;;;;;6279494;22;20027;-72
2021/06/11 03:15:30;;;;;;;5.70;4.68;;;21.70;68.70;;;;;;6279543;22;20012;-72
2021/06/11 03:18:01;;;;;;;6.35;5.43;;;21.70;68.70;;;;;;6289820;22;20015;-73
2021/06/11 03:20:40;;;;;;;5.85;5.25;;;21.70;68.70;;;;;;6289606;22;20035;-72
2021/06/11 03:23:31;;;;;;;6.53;5.60;;;21.70;68.70;;;;;;6256948;22;20416;-73
2021/06/11 03:26:02;;;;;;;7.30;5.43;;;21.60;68.70;;;;;;6279366;22;20012;-73
2021/06/11 03:28:42;;;;;;;5.93;4.97;;;21.70;68.80;;;;;;6289510;22;20019;-73
2021/06/11 03:31:17;;;;;;;6.78;5.20;;;21.70;68.80;;;;;;6290686;22;20019;-73
2021/06/11 03:33:46;;;;;;;5.38;4.85;;;21.60;68.70;;;;;;6279512;22;20023;-72
2021/06/11 03:36:38;;;;;;;6.18;5.30;;;21.60;68.70;;;;;;6257958;22;20027;-73
2021/06/11 03:39:14;;;;;;;7.28;5.50;;;21.60;68.70;;;;;;6280995;22;20075;-73
2021/06/11 03:41:42;;;;;;;6.07;5.28;;;21.60;68.70;;;;;;6279310;22;20019;-73
2021/06/11 03:44:10;;;;;;;5.78;4.97;;;21.60;68.70;;;;;;6279121;22;20490;-72
2021/06/11 03:46:42;;;;;;;5.97;5.38;;;21.60;68.70;;;;;;6289149;22;20020;-72
2021/06/11 03:49:09;;;;;;;5.75;5.05;;;21.60;68.80;;;;;;6287202;22;20023;-73
2021/06/11 03:51:39;;;;;;;6.80;5.57;;;21.60;68.80;;;;;;6277830;22;20321;-73
2021/06/11 03:54:08;;;;;;;4.35;3.83;;;21.60;69.00;;;;;;6278900;22;20057;-74
2021/06/11 03:56:39;;;;;;;7.53;5.45;;;21.60;68.90;;;;;;6278428;22;20454;-72
2021/06/11 03:59:09;;;;;;;5.70;4.30;;;21.60;69.00;;;;;;6289687;22;20012;-72
2021/06/11 04:01:40;;;;;;;5.57;4.78;;;21.60;68.90;;;;;;6278840;22;20019;-72
2021/06/11 04:04:07;;;;;;;5.60;4.35;;;21.60;68.90;;;;;;6288941;22;20091;-77
2021/06/11 04:06:41;;;;;;;10.27;5.43;;;21.60;68.90;;;;;;6279101;22;20038;-73
2021/06/11 04:09:15;;;;;;;8.43;6.43;;;21.60;69.30;;;;;;6278301;22;20020;-72
2021/06/11 04:11:53;;;;;;;11.87;7.47;;;21.70;70.20;;;;;;6278430;22;20020;-72
2021/06/11 04:14:25;;;;;;;9.80;6.10;;;21.60;70.10;;;;;;6289014;22;20021;-70
2021/06/11 04:16:58;;;;;;;14.23;10.43;;;21.60;70.10;;;;;;6279728;22;20016;-72
2021/06/11 04:19:38;;;;;;;10.52;7.82;;;21.60;70.90;;;;;;6288737;22;20451;-73
2021/06/11 04:22:05;;;;;;;13.93;11.15;;;21.60;71.10;;;;;;6288722;22;20039;-72
2021/06/11 04:24:36;;;;;;;14.38;8.80;;;21.60;71.40;;;;;;6252135;22;20095;-71
2021/06/11 04:27:07;;;;;;;19.92;13.80;;;21.60;71.50;;;;;;6278840;22;20019;-72
2021/06/11 04:29:48;;;;;;;21.38;14.50;;;21.60;71.20;;;;;;6279039;22;20016;-72
2021/06/11 04:32:15;;;;;;;22.75;15.25;;;21.60;70.90;;;;;;6278594;22;20017;-71
2021/06/11 04:34:42;;;;;;;23.77;17.98;;;21.60;70.80;;;;;;6278764;22;20016;-71
2021/06/11 04:37:08;;;;;;;27.70;19.77;;;21.60;70.70;;;;;;6289725;22;20138;-72
2021/06/11 04:39:34;;;;;;;39.47;22.45;;;21.60;70.80;;;;;;6289275;22;20047;-72
2021/06/11 04:42:00;;;;;;;29.73;22.40;;;21.60;71.60;;;;;;6288760;22;20018;-71
2021/06/11 04:44:31;;;;;;;31.30;23.25;;;21.60;71.10;;;;;;6279234;22;20130;-73
2021/06/11 04:46:57;;;;;;;35.28;24.98;;;21.50;71.10;;;;;;6278451;22;20425;-71
2021/06/11 04:49:23;;;;;;;35.05;24.90;;;21.50;71.20;;;;;;6278688;22;20023;-71
2021/06/11 04:51:49;;;;;;;34.35;26.88;;;21.50;71.40;;;;;;6289030;22;20023;-70
2021/06/11 04:54:17;;;;;;;35.47;25.27;;;21.50;71.70;;;;;;6278908;22;20321;-71
2021/06/11 04:56:42;;;;;;;36.47;25.67;;;21.50;71.90;;;;;;6288878;22;20022;-71
2021/06/11 04:59:08;;;;;;;37.65;27.23;;;21.40;71.70;;;;;;6288705;22;20077;-79
2021/06/11 05:01:34;;;;;;;34.97;27.67;;;21.40;72.00;;;;;;6278196;22;20103;-68
2021/06/11 05:04:00;;;;;;;34.25;24.90;;;21.40;71.80;;;;;;6278532;22;20409;-72
2021/06/11 05:06:29;;;;;;;31.88;24.33;;;21.40;71.70;;;;;;6282117;22;20019;-73
2021/06/11 05:08:55;;;;;;;33.38;24.67;;;21.40;71.70;;;;;;6288940;22;20317;-72
2021/06/11 05:11:21;;;;;;;32.33;25.13;;;21.30;71.60;;;;;;6278508;22;20031;-71
2021/06/11 05:13:47;;;;;;;34.30;25.67;;;21.30;71.60;;;;;;6278649;22;20022;-71
2021/06/11 05:16:13;;;;;;;34.63;24.95;;;21.30;71.60;;;;;;6278309;22;20373;-72
2021/06/11 05:18:39;;;;;;;36.95;26.02;;;21.30;71.70;;;;;;6262281;22;20088;-70
2021/06/11 05:21:05;;;;;;;32.55;24.90;;;21.30;71.70;;;;;;6278549;22;20060;-71
2021/06/11 05:23:32;;;;;;;34.83;24.92;;;21.30;71.70;;;;;;6278789;22;20015;-71
2021/06/11 05:25:59;;;;;;;32.75;25.80;;;21.30;72.40;;;;;;6278502;22;20359;-71
2021/06/11 05:28:25;;;;;;;33.22;24.23;;;21.30;71.90;;;;;;6288558;22;20016;-71
2021/06/11 05:30:56;;;;;;;30.60;23.67;;;21.30;71.90;;;;;;6279156;22;20016;-71
2021/06/11 05:33:25;;;;;;;30.00;23.33;;;21.20;71.90;;;;;;6288452;22;20086;-70
2021/06/11 05:35:55;;;;;;;32.58;24.30;;;21.20;72.00;;;;;;6278598;22;20020;-76
2021/06/11 05:38:21;;;;;;;33.67;24.50;;;21.30;72.10;;;;;;6276937;22;20026;-71
2021/06/11 05:40:55;;;;;;;31.10;23.75;;;21.20;72.10;;;;;;6288116;22;20308;-72
2021/06/11 05:43:25;;;;;;;33.95;25.45;;;21.20;72.10;;;;;;6277485;22;20028;-72
2021/06/11 05:46:12;;;;;;;31.67;24.30;;;21.20;72.20;;;;;;6256065;22;20020;-72
2021/06/11 05:48:40;;;;;;;32.47;24.40;;;21.20;72.20;;;;;;6288738;22;20026;-72
2021/06/11 05:51:06;;;;;;;32.10;24.95;;;21.20;72.30;;;;;;6278437;22;20440;-72
2021/06/11 05:53:38;;;;;;;30.70;23.65;;;21.20;72.40;;;;;;6280303;22;20054;-72
2021/06/11 05:56:05;;;;;;;28.30;22.63;;;21.20;72.40;;;;;;6281245;22;20020;-72
2021/06/11 05:58:35;;;;;;;29.48;21.95;;;21.20;72.50;;;;;;6290354;22;20016;-72
2021/06/11 06:01:10;;;;;;;33.13;22.50;;;21.20;72.50;;;;;;6280293;22;20020;-72
2021/06/11 06:03:38;;;;;;;30.50;20.98;;;21.20;72.60;;;;;;6280199;22;20030;-71
2021/06/11 06:06:05;;;;;;;29.48;22.00;;;21.20;72.60;;;;;;6258080;22;20420;-72
2021/06/11 06:08:41;;;;;;;34.10;21.17;;;21.20;72.60;;;;;;6280114;22;20020;-72
2021/06/11 06:11:14;;;;;;;30.70;20.77;;;21.20;72.70;;;;;;6280098;22;20020;-72
2021/06/11 06:13:41;;;;;;;29.83;20.48;;;21.20;72.80;;;;;;6280641;22;20091;-72
2021/06/11 06:16:15;;;;;;;23.40;18.08;;;21.20;73.50;;;;;;6290984;22;20345;-72
2021/06/11 06:18:40;;;;;;;25.15;19.98;;;21.20;72.90;;;;;;6290598;22;20058;-72
2021/06/11 06:21:06;;;;;;;26.38;20.13;;;21.20;72.90;;;;;;6280138;22;20359;-72
2021/06/11 06:23:33;;;;;;;27.02;20.27;;;21.10;72.90;;;;;;6281480;22;20026;-72
2021/06/11 06:25:59;;;;;;;26.00;20.05;;;21.10;72.90;;;;;;6290157;22;20416;-72
2021/06/11 06:28:25;;;;;;;26.63;20.20;;;21.10;73.00;;;;;;6279978;22;20091;-72
2021/06/11 06:30:56;;;;;;;24.70;19.13;;;21.10;73.20;;;;;;6290562;22;20039;-72
2021/06/11 06:33:42;;;;;;;26.38;19.55;;;21.10;73.20;;;;;;6257429;22;20050;-72
2021/06/11 06:36:09;;;;;;;25.42;19.30;;;21.00;73.40;;;;;;6290837;22;20016;-72
2021/06/11 06:38:36;;;;;;;26.38;19.27;;;21.00;73.50;;;;;;6279968;22;20443;-72
2021/06/11 06:41:04;;;;;;;26.98;19.90;;;21.00;73.50;;;;;;6280409;22;20332;-72
2021/06/11 06:43:32;;;;;;;27.77;20.45;;;21.00;73.60;;;;;;6280313;22;20034;-72
2021/06/11 06:45:59;;;;;;;25.13;19.60;;;21.00;73.80;;;;;;6279925;22;20015;-75
2021/06/11 06:48:27;;;;;;;26.38;19.80;;;21.00;74.00;;;;;;6279494;22;20428;-72
2021/06/11 06:50:58;;;;;;;27.85;19.40;;;20.90;74.10;;;;;;6290397;22;20046;-72
2021/06/11 06:53:24;;;;;;;22.90;18.45;;;21.00;74.20;;;;;;6279989;22;20026;-72
2021/06/11 06:55:50;;;;;;;22.92;17.77;;;20.90;74.20;;;;;;6290360;22;20016;-72
2021/06/11 06:58:15;;;;;;;23.33;17.98;;;20.90;74.20;;;;;;6290403;22;20077;-72
2021/06/11 07:00:41;;;;;;;23.63;18.45;;;20.90;74.20;;;;;;6290311;22;20011;-72
2021/06/11 07:03:08;;;;;;;24.02;18.50;;;20.90;74.30;;;;;;6289517;22;20316;-72
2021/06/11 07:05:34;;;;;;;22.95;18.90;;;20.90;74.30;;;;;;6280052;22;20024;-72
2021/06/11 07:08:09;;;;;;;22.48;17.27;;;20.90;74.50;;;;;;6279845;22;20408;-72
2021/06/11 07:10:35;;;;;;;19.88;16.83;;;20.90;74.70;;;;;;6279181;22;20038;-72
2021/06/11 07:13:02;;;;;;;21.98;17.02;;;20.90;74.70;;;;;;6279783;22;20020;-72
2021/06/11 07:15:29;;;;;;;20.23;16.38;;;20.90;74.80;;;;;;6279458;22;20018;-72
2021/06/11 07:17:57;;;;;;;19.60;16.40;;;20.90;74.90;;;;;;6279141;22;20087;-72
2021/06/11 07:20:24;;;;;;;22.38;17.60;;;20.90;75.20;;;;;;6279508;22;20020;-72
2021/06/11 07:22:50;;;;;;;26.60;20.40;;;20.90;75.40;;;;;;6280089;22;20339;-72
2021/06/11 07:25:18;;;;;;;26.20;19.88;;;20.90;75.70;;;;;;6280327;22;20026;-72
2021/06/11 07:27:44;;;;;;;25.35;20.08;;;20.90;75.90;;;;;;6279476;22;20069;-72
2021/06/11 07:30:12;;;;;;;28.52;21.58;;;20.90;75.90;;;;;;6279649;22;20016;-72
2021/06/11 07:32:42;;;;;;;25.80;19.45;;;20.90;76.00;;;;;;6279420;22;20020;-72
2021/06/11 07:35:09;;;;;;;22.45;18.15;;;20.90;76.00;;;;;;6278902;22;20435;-72
2021/06/11 07:37:43;;;;;;;21.25;16.95;;;20.80;75.90;;;;;;6290084;22;20020;-71
2021/06/11 07:40:10;;;;;;;22.23;17.42;;;20.80;75.90;;;;;;6289114;22;20038;-72
2021/06/11 07:42:37;;;;;;;21.38;16.98;;;20.80;75.90;;;;;;6279572;22;20015;-72
2021/06/11 07:45:07;;;;;;;23.15;17.42;;;20.80;75.60;;;;;;6289639;22;20011;-72
2021/06/11 07:47:36;;;;;;;21.38;16.80;;;20.70;75.70;;;;;;6279840;22;20024;-71
2021/06/11 07:50:15;;;;;;;22.50;16.08;;;20.70;75.80;;;;;;6279055;22;20368;-72
2021/06/11 07:52:50;;;;;;;21.15;16.05;;;20.60;76.00;;;;;;6289204;22;20424;-72
2021/06/11 07:55:19;;;;;;;21.25;15.05;;;20.60;76.10;;;;;;6279086;22;20099;-72
2021/06/11 07:58:04;;;;;;;22.33;15.68;;;20.60;76.10;;;;;;6256901;22;20015;-72
2021/06/11 08:00:50;;;;;;;21.55;15.60;;;20.70;75.90;;;;;;6256951;22;20016;-72
2021/06/11 08:03:18;;;;;;;24.83;16.42;;;20.80;75.90;;;;;;6279007;22;20475;-71
2021/06/11 08:05:47;;;;;;;20.85;15.60;;;20.70;76.00;;;;;;6253094;22;20029;-72
2021/06/11 08:08:13;;;;;;;18.25;14.50;;;20.80;75.70;;;;;;6278791;22;20020;-72
2021/06/11 08:11:01;;;;;;;22.38;15.30;;;20.80;75.90;;;;;;6278312;22;20019;-72
2021/06/11 08:13:31;;;;;;;19.98;15.00;;;20.70;75.90;;;;;;6278760;22;20026;-72
2021/06/11 08:15:57;;;;;;;21.38;14.68;;;20.70;76.10;;;;;;6288970;22;20011;-73
2021/06/11 08:18:24;;;;;;;20.75;15.02;;;20.70;76.40;;;;;;6279106;22;20019;-72
2021/06/11 08:20:51;;;;;;;20.17;14.38;;;20.70;76.30;;;;;;6288713;22;20011;-73
2021/06/11 08:23:20;;;;;;;20.83;14.38;;;20.70;76.30;;;;;;6279159;22;20427;-72
2021/06/11 08:25:52;;;;;;;23.13;13.82;;;20.80;76.50;;;;;;6289448;22;20039;-71
2021/06/11 08:28:38;;;;;;;22.02;13.63;;;20.80;76.50;;;;;;6256386;22;20028;-72
2021/06/11 08:31:05;;;;;;;19.83;12.13;;;20.90;76.50;;;;;;6278642;22;20020;-71
2021/06/11 08:33:38;;;;;;;16.52;11.90;;;20.90;76.20;;;;;;6278507;22;20023;-71
2021/06/11 08:36:04;;;;;;;18.58;12.98;;;20.90;76.00;;;;;;6251989;22;20061;-71
2021/06/11 08:38:39;;;;;;;17.15;12.25;;;21.00;75.90;;;;;;6278587;22;20020;-73
2021/06/11 08:41:13;;;;;;;17.15;11.45;;;21.00;75.90;;;;;;6278463;22;20016;-72
2021/06/11 08:43:42;;;;;;;14.73;10.90;;;21.00;75.80;;;;;;6288679;22;20019;-72
2021/06/11 08:46:10;;;;;;;16.25;11.60;;;21.10;75.80;;;;;;6278592;22;20027;-72
2021/06/11 08:48:44;;;;;;;17.77;11.13;;;21.10;75.80;;;;;;6278668;22;20015;-72
2021/06/11 08:51:11;;;;;;;17.52;11.90;;;21.10;75.80;;;;;;6288385;22;20026;-72
2021/06/11 08:53:43;;;;;;;15.85;10.98;;;21.20;75.70;;;;;;6278310;22;20021;-72
2021/06/11 08:56:13;;;;;;;12.55;10.80;;;21.20;75.70;;;;;;6288924;22;20086;-72
2021/06/11 08:58:45;;;;;;;12.07;10.02;;;21.20;75.70;;;;;;6253758;22;20020;-72
2021/06/11 09:01:12;;;;;;;13.90;11.30;;;21.20;75.60;;;;;;6289011;22;20018;-72
2021/06/11 09:03:47;;;;;;;13.95;11.38;;;21.20;75.70;;;;;;6288369;22;20015;-72
2021/06/11 09:06:18;;;;;;;14.18;10.95;;;21.20;75.60;;;;;;6278596;22;20024;-72
2021/06/11 09:08:54;;;;;;;14.52;11.32;;;21.20;75.60;;;;;;6288837;22;20015;-72
2021/06/11 09:11:26;;;;;;;12.55;10.85;;;21.20;75.60;;;;;;6278580;22;20083;-72
2021/06/11 09:14:06;;;;;;;14.90;10.90;;;21.20;75.60;;;;;;6278509;22;20371;-71
2021/06/11 09:17:01;;;;;;;13.85;11.15;;;21.30;75.50;;;;;;6288669;22;20011;-71
2021/06/11 09:20:16;;;;;;;12.57;9.95;;;21.30;75.60;;;;;;6255578;22;20026;-70
2021/06/11 09:22:50;;;;;;;15.50;10.65;;;21.30;75.50;;;;;;6279668;22;20015;-70
2021/06/11 09:25:38;;;;;;;12.15;10.05;;;21.30;75.60;;;;;;6278706;22;20050;-70
2021/06/11 09:28:16;;;;;;;13.10;10.20;;;21.30;75.60;;;;;;6290547;22;20091;-70
2021/06/11 09:30:54;;;;;;;12.63;10.40;;;21.30;75.50;;;;;;6290952;22;20019;-70
2021/06/11 09:33:25;;;;;;;12.70;9.02;;;21.40;75.60;;;;;;6279684;22;20098;-70
2021/06/11 09:36:00;;;;;;;11.13;8.68;;;21.40;75.60;;;;;;6279796;22;20086;-70
2021/06/11 09:38:29;;;;;;;10.70;8.88;;;21.40;75.40;;;;;;6280465;22;20020;-70
2021/06/11 09:40:59;;;;;;;12.43;8.05;;;21.40;75.40;;;;;;6280384;22;20081;-70
2021/06/11 09:43:29;;;;;;;9.27;7.90;;;21.50;75.30;;;;;;6290677;22;20021;-70
2021/06/11 09:46:11;;;;;;;11.77;8.00;;;21.50;75.20;;;;;;6290874;22;20027;-70
2021/06/11 09:48:46;;;;;;;9.27;7.13;;;21.50;75.20;;;;;;6280559;22;20020;-70
2021/06/11 09:51:16;;;;;;;9.60;8.32;;;21.50;75.10;;;;;;6291844;22;20022;-70
2021/06/11 09:53:45;;;;;;;11.13;7.82;;;21.50;75.10;;;;;;6291449;22;20016;-70
2021/06/11 09:56:21;;;;;;;8.43;7.55;;;21.50;75.00;;;;;;6291269;22;20046;-70
2021/06/11 09:58:47;;;;;;;9.05;7.70;;;21.60;75.10;;;;;;6289882;22;20028;-71
2021/06/11 10:01:15;;;;;;;8.13;7.30;;;21.60;75.10;;;;;;6281458;22;20347;-70
2021/06/11 10:03:47;;;;;;;9.52;7.50;;;21.60;75.10;;;;;;6290464;22;20439;-70
2021/06/11 10:06:15;;;;;;;8.70;6.80;;;21.60;75.00;;;;;;6279859;22;20065;-70
2021/06/11 10:08:48;;;;;;;8.05;6.28;;;21.60;74.90;;;;;;6280101;22;20016;-71
2021/06/11 10:11:15;;;;;;;7.25;6.22;;;21.60;74.90;;;;;;6290262;22;20091;-70
2021/06/11 10:13:42;;;;;;;8.13;6.65;;;21.60;74.80;;;;;;6279736;22;20325;-70
2021/06/11 10:16:10;;;;;;;7.28;6.53;;;21.60;74.70;;;;;;6290308;22;20020;-70
2021/06/11 10:18:38;;;;;;;7.10;6.40;;;21.60;74.70;;;;;;6279783;22;20054;-71
2021/06/11 10:21:05;;;;;;;7.47;6.72;;;21.60;74.70;;;;;;6279452;22;20436;-70
2021/06/11 10:23:33;;;;;;;7.35;6.53;;;21.70;74.70;;;;;;6289972;22;20146;-70
2021/06/11 10:26:02;;;;;;;8.35;6.82;;;21.70;74.70;;;;;;6290200;22;20137;-70
2021/06/11 10:28:37;;;;;;;6.93;6.22;;;21.70;74.70;;;;;;6280135;22;20016;-70
2021/06/11 10:31:08;;;;;;;7.60;6.82;;;21.70;74.60;;;;;;6280657;22;20016;-71
2021/06/11 10:33:43;;;;;;;7.93;6.72;;;21.70;75.20;;;;;;6252944;22;20016;-70
2021/06/11 10:39:11;;;;;;;8.85;7.72;;;21.70;74.50;;;;;;6279489;22;20042;-71
2021/06/11 10:41:56;;;;;;;9.07;7.55;;;21.70;74.60;;;;;;6290089;22;20015;-71
2021/06/11 10:44:42;;;;;;;8.50;6.57;;;21.80;74.60;;;;;;6290860;22;20326;-71
2021/06/11 10:47:17;;;;;;;10.98;5.85;;;21.80;74.50;;;;;;6290454;22;20019;-71
2021/06/11 10:49:55;;;;;;;6.95;5.75;;;21.70;74.50;;;;;;6289797;22;20359;-71
2021/06/11 10:52:31;;;;;;;7.82;5.78;;;21.80;74.50;;;;;;6289625;22;20286;-71
2021/06/11 10:55:17;;;;;;;7.95;5.55;;;21.80;74.40;;;;;;6280525;22;20012;-71
2021/06/11 10:58:05;;;;;;;7.78;4.95;;;21.80;74.30;;;;;;6280035;22;20027;-71
2021/06/11 11:00:36;;;;;;;5.78;5.18;;;21.80;74.30;;;;;;6280429;22;20016;-72
2021/06/11 11:03:04;;;;;;;5.20;4.70;;;21.80;74.30;;;;;;6290010;22;20069;-71
2021/06/11 11:05:34;;;;;;;6.07;5.05;;;21.80;74.20;;;;;;6279426;22;20020;-71
2021/06/11 11:08:05;;;;;;;5.22;4.65;;;21.90;74.20;;;;;;6279438;22;20428;-71
2021/06/11 11:10:52;;;;;;;5.00;4.47;;;21.90;74.20;;;;;;6289768;22;20077;-71
2021/06/11 11:13:28;;;;;;;7.65;4.93;;;21.80;74.10;;;;;;6279504;22;20308;-71
2021/06/11 11:15:57;;;;;;;6.50;4.95;;;21.80;74.00;;;;;;6290642;22;20019;-72
2021/06/11 11:18:35;;;;;;;5.43;4.20;;;21.90;74.00;;;;;;6290393;22;20043;-71
2021/06/11 11:21:20;;;;;;;5.07;4.30;;;21.90;74.00;;;;;;6280436;22;20023;-71
2021/06/11 11:23:51;;;;;;;5.03;4.05;;;21.90;74.00;;;;;;6290098;22;20015;-71
2021/06/11 11:26:19;;;;;;;6.43;4.68;;;21.90;74.00;;;;;;6279232;22;20321;-71
2021/06/11 11:28:46;;;;;;;5.18;4.68;;;21.90;73.90;;;;;;6289212;22;20097;-72
2021/06/11 11:31:16;;;;;;;4.95;4.22;;;21.90;73.80;;;;;;6278919;22;20432;-71
2021/06/11 11:33:41;;;;;;;7.18;4.50;;;21.90;73.80;;;;;;6279265;22;20027;-72
2021/06/11 11:36:07;;;;;;;5.78;4.40;;;21.90;73.70;;;;;;6279694;22;20016;-72
2021/06/11 11:38:33;;;;;;;4.88;4.22;;;22.00;73.60;;;;;;6289672;22;20413;-72
2021/06/11 11:40:59;;;;;;;6.55;4.70;;;21.90;73.60;;;;;;6289586;22;20015;-72
2021/06/11 11:43:27;;;;;;;4.80;4.28;;;21.90;73.50;;;;;;6279466;22;20482;-72
2021/06/11 11:45:54;;;;;;;5.78;5.05;;;22.00;73.60;;;;;;6279463;22;20022;-71
2021/06/11 11:48:24;;;;;;;5.30;4.80;;;22.00;73.50;;;;;;6289539;22;20083;-72
2021/06/11 11:50:50;;;;;;;6.35;4.85;;;22.00;73.50;;;;;;6278785;22;20050;-72
2021/06/11 11:53:16;;;;;;;4.85;4.30;;;22.00;73.50;;;;;;6279395;22;20016;-72
2021/06/11 11:55:42;;;;;;;5.50;5.00;;;22.00;73.50;;;;;;6290010;22;20401;-72
2021/06/11 11:58:08;;;;;;;6.03;4.45;;;22.00;73.40;;;;;;6278886;22;20024;-71
2021/06/11 12:00:34;;;;;;;5.40;4.60;;;22.00;73.40;;;;;;6288781;22;20022;-72
2021/06/11 12:03:00;;;;;;;4.95;4.40;;;22.00;73.30;;;;;;6278849;22;20015;-72
2021/06/11 12:05:26;;;;;;;4.40;4.00;;;22.10;73.40;;;;;;6278830;22;20011;-72
2021/06/11 12:07:54;;;;;;;5.10;4.07;;;22.00;73.30;;;;;;6281279;22;20428;-72
2021/06/11 12:10:20;;;;;;;4.85;4.32;;;22.00;73.20;;;;;;6278585;22;20432;-72
2021/06/11 12:12:46;;;;;;;4.70;4.18;;;22.00;73.20;;;;;;6289623;22;20022;-72
2021/06/11 12:15:12;;;;;;;4.63;4.03;;;22.10;73.20;;;;;;6279878;22;20016;-71
2021/06/11 12:17:38;;;;;;;5.53;4.18;;;22.00;73.10;;;;;;6279022;22;20101;-72
2021/06/11 12:20:05;;;;;;;5.05;3.83;;;22.00;73.10;;;;;;6279220;22;20352;-72
2021/06/11 12:22:31;;;;;;;4.72;3.92;;;22.00;73.00;;;;;;6289789;22;20098;-72
2021/06/11 12:24:56;;;;;;;4.97;4.47;;;22.10;73.00;;;;;;6278950;22;20373;-72
2021/06/11 12:27:22;;;;;;;5.00;4.22;;;22.10;73.00;;;;;;6289788;22;20028;-72
2021/06/11 12:29:48;;;;;;;4.65;4.10;;;22.10;73.00;;;;;;6278592;22;20428;-72
2021/06/11 12:32:14;;;;;;;5.18;4.68;;;22.10;73.00;;;;;;6289526;22;20054;-72
2021/06/11 12:34:40;;;;;;;4.60;4.03;;;22.00;72.90;;;;;;6289325;22;20432;-72
2021/06/11 12:37:08;;;;;;;5.47;4.45;;;22.00;72.90;;;;;;6278805;22;20082;-72
2021/06/11 12:39:34;;;;;;;5.60;5.10;;;22.00;72.80;;;;;;6289526;22;20282;-72
2021/06/11 12:42:21;;;;;;;8.45;7.15;;;22.10;72.70;;;;;;6288310;22;20358;-72
2021/06/11 12:44:47;;;;;;;8.05;5.93;;;22.10;72.60;;;;;;6288713;22;20098;-73
2021/06/11 12:47:14;;;;;;;5.97;5.18;;;22.10;72.70;;;;;;6289247;22;20047;-72
2021/06/11 12:49:41;;;;;;;9.60;5.55;;;22.10;72.80;;;;;;6288634;22;20050;-71
2021/06/11 12:52:13;;;;;;;6.00;5.40;;;22.10;72.90;;;;;;6278637;22;20070;-71
2021/06/11 12:54:39;;;;;;;7.13;5.75;;;22.10;73.10;;;;;;6278652;22;20020;-71
2021/06/11 12:57:17;;;;;;;7.18;5.60;;;22.10;73.40;;;;;;6289151;22;20031;-71